ROTAER D-AMDT 8/24 Ver mudanças

Manicoré ( SBMY ) / MANICORÉ, AM 05 48 40S/061 16 42W
AD PUB 3E UTC-4 53 (174)

05 - ( 1265x30 ASPH 12/F/C/Y/U ) - 23

SBAZ (CINDACTA 4)
CMB- [1] TF
MET - MET CIVIL –

RMK -

INFORMAÇÃO METEOROLÓGICA FORNECIDA
  1. ERAA FREQ 132.600MHZ HR SER DLY H24.
INFORMAÇÃO ADICIONAL
  1. OBS concentração de pássaros (urubus) na perna do vento da RWY 05 e nas proximidades das laterais da RWY 05/23
COMPL -
  • [1] HJ. AVBL PARA ACFT MIL, MEDIANTE AUTORIZAÇÃO DO CMT DA BAMN, ATRAVÉS DOS TEL (92) 98429-2256 OU (92) 98818-4274.
TEMP (0)

Suplementos AIP (0)

NOTAM (Carregando ...)


Nascer/Por do Sol

10:05

22:01


METAR

TAF

202105Z 2100/2112 VRB02KT 8000 SCT020 TN24/2110Z TX28/2112Z RMK PHI=


OPEA/Obstáculos


Cartas (0)


Rotas Preferenciais (0)